createdAt,value
2023-12-27T00:00:35.272Z,7.90
2023-12-27T00:03:07.638Z,7.75
2023-12-27T00:05:37.086Z,7.72
2023-12-27T00:08:06.441Z,7.38
2023-12-27T00:10:35.590Z,7.07
2023-12-27T00:13:05.491Z,7.35
2023-12-27T00:15:34.617Z,7.22
2023-12-27T00:18:05.817Z,7.18
2023-12-27T00:20:35.009Z,6.57
2023-12-27T00:23:04.886Z,8.48
2023-12-27T00:25:34.360Z,6.65
2023-12-27T00:28:03.526Z,7.00
2023-12-27T00:30:32.943Z,7.60
2023-12-27T00:33:02.936Z,6.68
2023-12-27T00:35:33.639Z,7.30
2023-12-27T00:38:02.824Z,7.40
2023-12-27T00:40:32.881Z,7.55
2023-12-27T00:43:02.128Z,6.63
2023-12-27T00:45:31.294Z,6.25
2023-12-27T00:48:00.904Z,7.25
2023-12-27T00:50:30.474Z,7.30
2023-12-27T00:53:01.846Z,6.70
2023-12-27T00:55:31.113Z,6.57
2023-12-27T00:58:00.466Z,7.03
2023-12-27T01:00:30.236Z,6.25
2023-12-27T01:03:02.578Z,7.05
2023-12-27T01:05:31.820Z,7.05
2023-12-27T01:08:02.418Z,6.95
2023-12-27T01:10:31.547Z,6.38
2023-12-27T01:13:01.265Z,7.05
2023-12-27T01:15:30.482Z,7.05
2023-12-27T01:17:59.949Z,7.32
2023-12-27T01:20:30.234Z,6.18
2023-12-27T01:22:59.365Z,6.63
2023-12-27T01:25:31.038Z,5.72
2023-12-27T01:28:00.584Z,6.07
2023-12-27T01:30:31.570Z,6.07
2023-12-27T01:33:01.304Z,6.68
2023-12-27T01:35:30.540Z,5.70
2023-12-27T01:38:00.291Z,5.97
2023-12-27T01:40:32.530Z,6.38
2023-12-27T01:43:03.104Z,6.22
2023-12-27T01:45:32.400Z,5.95
2023-12-27T01:48:01.945Z,6.30
2023-12-27T01:50:32.602Z,5.95
2023-12-27T01:53:01.804Z,7.00
2023-12-27T01:55:32.399Z,6.38
2023-12-27T01:58:02.385Z,5.97
2023-12-27T02:00:32.132Z,6.20
2023-12-27T02:03:01.498Z,5.97
2023-12-27T02:05:30.710Z,6.47
2023-12-27T02:08:01.451Z,5.93
2023-12-27T02:10:32.465Z,6.47
2023-12-27T02:13:06.450Z,5.68
2023-12-27T02:15:37.183Z,6.70
2023-12-27T02:18:08.668Z,6.28
2023-12-27T02:20:38.795Z,6.15
2023-12-27T02:23:09.988Z,5.43
2023-12-27T02:25:40.861Z,5.68
2023-12-27T02:28:10.097Z,5.80
2023-12-27T02:30:39.670Z,5.82
2023-12-27T02:33:09.410Z,5.60
2023-12-27T02:35:38.676Z,5.28
2023-12-27T02:38:07.839Z,5.22
2023-12-27T02:40:37.114Z,5.72
2023-12-27T02:43:07.692Z,5.50
2023-12-27T02:45:36.857Z,5.45
2023-12-27T02:48:06.809Z,5.38
2023-12-27T02:50:36.145Z,4.68
2023-12-27T02:53:05.917Z,5.28
2023-12-27T02:55:35.051Z,5.40
2023-12-27T02:58:04.646Z,5.15
2023-12-27T03:00:38.719Z,5.00
2023-12-27T03:03:07.973Z,5.28
2023-12-27T03:05:37.123Z,5.38
2023-12-27T03:08:07.187Z,4.93
2023-12-27T03:10:36.510Z,5.28
2023-12-27T03:13:06.400Z,5.68
2023-12-27T03:15:37.004Z,5.05
2023-12-27T03:18:06.718Z,5.65
2023-12-27T03:20:35.875Z,5.32
2023-12-27T03:23:05.855Z,5.40
2023-12-27T03:25:34.998Z,5.28
2023-12-27T03:28:04.394Z,5.03
2023-12-27T03:30:33.645Z,5.47
2023-12-27T03:33:04.442Z,4.45
2023-12-27T03:35:34.104Z,4.85
2023-12-27T03:38:03.315Z,4.47
2023-12-27T03:40:32.457Z,4.55
2023-12-27T03:43:01.621Z,4.43
2023-12-27T03:45:30.757Z,5.00
2023-12-27T03:48:00.211Z,5.03
2023-12-27T03:50:31.358Z,5.10
2023-12-27T03:53:00.488Z,5.30
2023-12-27T03:55:29.715Z,5.22
2023-12-27T03:57:59.177Z,5.03
2023-12-27T04:00:28.578Z,5.35
2023-12-27T04:02:57.876Z,4.43
2023-12-27T04:05:27.909Z,4.80
2023-12-27T04:07:58.741Z,4.90
2023-12-27T04:10:32.652Z,4.25
2023-12-27T04:13:02.002Z,4.53
2023-12-27T04:15:31.788Z,4.32
2023-12-27T04:18:01.806Z,3.65
2023-12-27T04:20:31.322Z,4.68
2023-12-27T04:23:01.894Z,5.28
2023-12-27T04:25:31.096Z,5.40
2023-12-27T04:28:00.395Z,4.40
2023-12-27T04:30:29.722Z,4.65
2023-12-27T04:32:59.080Z,4.45
2023-12-27T04:35:28.303Z,5.05
2023-12-27T04:37:58.925Z,4.75
2023-12-27T04:40:29.540Z,4.13
2023-12-27T04:43:00.316Z,4.45
2023-12-27T04:45:29.456Z,5.00
2023-12-27T04:47:59.881Z,4.35
2023-12-27T04:50:29.275Z,4.25
2023-12-27T04:52:58.410Z,3.80
2023-12-27T04:55:27.613Z,4.65
2023-12-27T04:57:58.442Z,4.57
2023-12-27T05:00:27.821Z,4.57
2023-12-27T05:02:57.000Z,4.78
2023-12-27T05:05:26.234Z,5.10
2023-12-27T05:07:55.666Z,4.00
2023-12-27T05:10:25.025Z,4.30
2023-12-27T05:12:54.536Z,5.00
2023-12-27T05:15:25.294Z,3.78
2023-12-27T05:17:54.732Z,4.57
2023-12-27T05:20:24.040Z,4.78
2023-12-27T05:22:53.208Z,4.20
2023-12-27T05:25:22.532Z,4.00
2023-12-27T05:27:51.639Z,3.47
2023-12-27T05:30:20.964Z,3.85
2023-12-27T05:32:51.758Z,3.83
2023-12-27T05:35:20.991Z,3.70
2023-12-27T05:37:50.084Z,4.30
2023-12-27T05:40:19.278Z,3.92
2023-12-27T05:42:49.085Z,4.18
2023-12-27T05:45:18.493Z,4.03
2023-12-27T05:47:47.683Z,4.85
2023-12-27T05:50:18.446Z,4.30
2023-12-27T05:52:48.799Z,4.35
2023-12-27T05:55:18.703Z,4.63
2023-12-27T05:57:47.892Z,4.72
2023-12-27T06:00:17.933Z,4.78
2023-12-27T06:02:47.079Z,4.68
2023-12-27T06:05:17.930Z,4.20
2023-12-27T06:07:47.090Z,4.70
2023-12-27T06:10:16.881Z,5.00
2023-12-27T06:12:45.957Z,4.43
2023-12-27T06:15:15.402Z,4.28
2023-12-27T06:17:44.612Z,4.30
2023-12-27T06:20:14.254Z,4.72
2023-12-27T06:22:44.834Z,4.82
2023-12-27T06:25:14.451Z,5.03
2023-12-27T06:27:43.731Z,4.10
2023-12-27T06:30:14.257Z,5.15
2023-12-27T06:32:43.545Z,5.60
2023-12-27T06:35:12.686Z,4.38
2023-12-27T06:37:43.359Z,4.00
2023-12-27T06:40:15.459Z,5.35
2023-12-27T06:42:44.782Z,6.03
2023-12-27T06:45:14.050Z,4.90
2023-12-27T06:47:43.284Z,5.65
2023-12-27T06:50:13.068Z,4.53
2023-12-27T06:52:42.192Z,5.93
2023-12-27T06:55:12.396Z,5.68
2023-12-27T06:57:42.891Z,4.82
2023-12-27T07:00:13.483Z,4.88
2023-12-27T07:02:42.669Z,5.28
2023-12-27T07:05:13.242Z,5.03
2023-12-27T07:07:42.565Z,5.28
2023-12-27T07:10:13.616Z,5.22
2023-12-27T07:12:44.813Z,4.20
2023-12-27T07:15:15.053Z,4.82
2023-12-27T07:17:46.208Z,5.28
2023-12-27T07:20:15.929Z,5.00
2023-12-27T07:22:45.221Z,4.47
2023-12-27T07:25:14.497Z,5.07
2023-12-27T07:27:45.039Z,4.38
2023-12-27T07:30:15.784Z,4.55
2023-12-27T07:32:45.188Z,4.47
2023-12-27T07:35:14.481Z,4.60
2023-12-27T07:37:43.873Z,3.80
2023-12-27T07:40:14.900Z,4.28
2023-12-27T07:42:45.991Z,4.47
2023-12-27T07:45:15.637Z,4.30
2023-12-27T07:47:45.513Z,4.07
2023-12-27T07:50:14.745Z,3.97
2023-12-27T07:52:44.223Z,4.15
2023-12-27T07:55:13.766Z,3.97
2023-12-27T07:57:46.680Z,4.68
2023-12-27T08:00:17.383Z,4.35
2023-12-27T08:02:46.769Z,4.07
2023-12-27T08:05:17.277Z,3.83
2023-12-27T08:07:46.855Z,4.10
2023-12-27T08:10:16.575Z,4.40
2023-12-27T08:12:47.796Z,4.53
2023-12-27T08:15:17.376Z,4.97
2023-12-27T08:17:46.624Z,4.38
2023-12-27T08:20:16.136Z,4.50
2023-12-27T08:22:45.353Z,4.22
2023-12-27T08:25:17.062Z,4.20
2023-12-27T08:27:47.754Z,4.47
2023-12-27T08:30:17.441Z,4.80
2023-12-27T08:32:47.354Z,4.55
2023-12-27T08:35:19.950Z,4.53
2023-12-27T08:37:49.645Z,5.07
2023-12-27T08:40:20.196Z,4.32
2023-12-27T08:42:51.129Z,4.63
2023-12-27T08:45:20.457Z,4.30
2023-12-27T08:47:49.980Z,4.72
2023-12-27T08:50:19.452Z,4.28
2023-12-27T08:52:48.655Z,4.40
2023-12-27T08:55:18.209Z,4.60
2023-12-27T08:57:47.817Z,4.93
2023-12-27T09:00:20.469Z,7.95
2023-12-27T09:02:50.515Z,3.78
2023-12-27T09:05:19.772Z,4.88
2023-12-27T09:07:48.986Z,5.18
2023-12-27T09:10:18.778Z,5.47
2023-12-27T09:12:49.122Z,4.03
2023-12-27T09:15:20.827Z,4.30
2023-12-27T09:17:50.871Z,4.90
2023-12-27T09:20:20.290Z,4.82
2023-12-27T09:22:50.188Z,4.80
2023-12-27T09:25:20.098Z,4.90
2023-12-27T09:27:49.816Z,5.50
2023-12-27T09:30:20.811Z,5.30
2023-12-27T09:32:50.645Z,5.20
2023-12-27T09:35:19.952Z,5.20
2023-12-27T09:37:49.339Z,5.00
2023-12-27T09:40:19.463Z,5.18
2023-12-27T09:42:51.046Z,5.57
2023-12-27T09:45:24.012Z,4.78
2023-12-27T09:47:58.488Z,5.50
2023-12-27T09:50:27.934Z,5.75
2023-12-27T09:52:59.048Z,5.35
2023-12-27T09:55:28.680Z,5.07
2023-12-27T09:57:59.228Z,4.72
2023-12-27T10:00:34.058Z,5.43
2023-12-27T10:03:09.591Z,4.93
2023-12-27T10:05:47.874Z,5.35
2023-12-27T10:08:18.676Z,5.13
2023-12-27T10:10:49.031Z,4.85
2023-12-27T10:13:19.499Z,4.80
2023-12-27T10:15:50.220Z,4.82
2023-12-27T10:18:19.722Z,4.68
2023-12-27T10:20:49.653Z,4.50
2023-12-27T10:23:19.205Z,4.82
2023-12-27T10:25:48.765Z,4.80
2023-12-27T10:28:17.905Z,4.53
2023-12-27T10:30:47.418Z,4.57
2023-12-27T10:33:21.485Z,5.32
2023-12-27T10:35:53.810Z,4.95
2023-12-27T10:38:23.476Z,5.55
2023-12-27T10:40:55.281Z,5.00
2023-12-27T10:43:26.692Z,5.70
2023-12-27T10:45:56.681Z,5.00
2023-12-27T10:48:31.148Z,4.70
2023-12-27T10:51:01.054Z,5.47
2023-12-27T10:53:35.029Z,4.70
2023-12-27T10:56:05.968Z,5.20
2023-12-27T10:58:41.723Z,4.90
2023-12-27T11:01:12.409Z,5.72
2023-12-27T11:03:45.098Z,5.53
2023-12-27T11:06:18.442Z,5.43
2023-12-27T11:08:49.332Z,5.15
2023-12-27T11:11:20.053Z,5.63
2023-12-27T11:13:51.378Z,5.32
2023-12-27T11:16:25.183Z,5.97
2023-12-27T11:18:57.350Z,5.55
2023-12-27T11:21:30.381Z,5.65
2023-12-27T11:23:59.978Z,5.40
2023-12-27T11:26:32.545Z,4.30
2023-12-27T11:29:02.898Z,5.10
2023-12-27T11:31:33.937Z,3.83
2023-12-27T11:34:05.740Z,4.57
2023-12-27T11:36:35.682Z,4.32
2023-12-27T11:39:19.720Z,4.13
2023-12-27T11:41:50.541Z,3.97
2023-12-27T11:44:19.948Z,4.65
2023-12-27T11:46:49.469Z,4.28
2023-12-27T11:49:23.724Z,4.32
2023-12-27T11:51:54.333Z,3.80
2023-12-27T11:54:27.547Z,3.95
2023-12-27T11:56:58.252Z,3.45
2023-12-27T11:59:28.896Z,4.13
2023-12-27T12:02:02.518Z,4.35
2023-12-27T12:04:56.023Z,4.00
2023-12-27T12:07:53.204Z,4.20
2023-12-27T12:10:27.849Z,4.00
2023-12-27T12:12:59.553Z,3.90
2023-12-27T12:15:32.004Z,4.20
2023-12-27T12:18:03.735Z,4.10
2023-12-27T12:20:35.748Z,3.70
2023-12-27T12:23:05.494Z,3.92
2023-12-27T12:25:34.713Z,4.05
2023-12-27T12:28:04.402Z,3.78
2023-12-27T12:30:33.851Z,3.97
2023-12-27T12:33:03.349Z,4.10
2023-12-27T12:35:34.087Z,3.67
2023-12-27T12:38:05.073Z,3.80
2023-12-27T12:40:34.553Z,4.25
2023-12-27T12:43:04.610Z,4.07
2023-12-27T12:45:36.699Z,3.50
2023-12-27T12:48:07.385Z,3.58
2023-12-27T12:50:38.121Z,3.70
2023-12-27T12:53:18.407Z,3.92
2023-12-27T12:55:48.532Z,3.78
2023-12-27T12:58:17.838Z,3.83
2023-12-27T13:00:53.804Z,3.90
2023-12-27T13:03:23.238Z,3.25
2023-12-27T13:05:54.168Z,3.65
2023-12-27T13:08:25.446Z,4.05
2023-12-27T13:10:54.728Z,3.47
2023-12-27T13:13:23.867Z,3.67
2023-12-27T13:15:53.184Z,3.90
2023-12-27T13:18:22.476Z,4.03
2023-12-27T13:20:54.194Z,4.13
2023-12-27T13:23:23.424Z,3.85
2023-12-27T13:25:52.602Z,4.20
2023-12-27T13:28:26.519Z,4.30
2023-12-27T13:30:56.148Z,3.50
2023-12-27T13:33:26.501Z,4.03
2023-12-27T13:35:57.203Z,4.10
2023-12-27T13:38:26.490Z,4.43
2023-12-27T13:40:56.316Z,3.72
2023-12-27T13:43:25.507Z,4.15
2023-12-27T13:45:55.026Z,4.03
2023-12-27T13:48:27.241Z,3.67
2023-12-27T13:50:57.841Z,3.70
2023-12-27T13:53:27.254Z,5.13
2023-12-27T13:55:56.598Z,4.25
2023-12-27T13:58:25.950Z,4.80
2023-12-27T14:00:55.193Z,5.40
2023-12-27T14:03:24.752Z,5.18
2023-12-27T14:05:54.112Z,4.75
2023-12-27T14:08:24.721Z,4.40
2023-12-27T14:10:55.225Z,5.13
2023-12-27T14:13:26.156Z,5.22
2023-12-27T14:15:55.463Z,5.53
2023-12-27T14:18:27.681Z,5.18
2023-12-27T14:20:56.960Z,5.47
2023-12-27T14:23:27.560Z,5.10
2023-12-27T14:25:58.480Z,5.75
2023-12-27T14:28:27.617Z,5.57
2023-12-27T14:30:56.861Z,5.82
2023-12-27T14:33:26.226Z,6.63
2023-12-27T14:35:55.414Z,5.30
2023-12-27T14:38:24.818Z,4.63
2023-12-27T14:40:55.331Z,5.78
2023-12-27T14:43:24.653Z,5.25
2023-12-27T14:45:53.936Z,5.10
2023-12-27T14:48:23.441Z,5.35
2023-12-27T14:50:52.746Z,5.90
2023-12-27T14:53:21.951Z,5.63
2023-12-27T14:55:51.581Z,5.30
2023-12-27T14:58:22.192Z,5.10
2023-12-27T15:00:51.653Z,5.75
2023-12-27T15:03:21.824Z,5.32
2023-12-27T15:05:51.294Z,5.22
2023-12-27T15:08:20.567Z,5.65
2023-12-27T15:10:49.834Z,5.35
2023-12-27T15:13:19.227Z,6.40
2023-12-27T15:15:50.006Z,5.57
2023-12-27T15:18:19.655Z,6.20
2023-12-27T15:20:49.686Z,5.78
2023-12-27T15:23:18.782Z,5.50
2023-12-27T15:25:47.969Z,5.63
2023-12-27T15:28:19.425Z,5.55
2023-12-27T15:30:52.105Z,7.75
2023-12-27T15:33:21.557Z,9.93
2023-12-27T15:35:51.465Z,7.10
2023-12-27T15:38:20.744Z,8.10
2023-12-27T15:40:49.877Z,8.52
2023-12-27T15:43:18.978Z,9.38
2023-12-27T15:45:49.517Z,9.45
2023-12-27T15:48:19.042Z,9.23
2023-12-27T15:50:48.247Z,9.32
2023-12-27T15:53:17.442Z,10.90
2023-12-27T15:55:46.522Z,9.88
2023-12-27T15:58:15.628Z,9.40
2023-12-27T16:00:44.864Z,9.60
2023-12-27T16:03:15.566Z,12.23
2023-12-27T16:05:47.875Z,10.82
2023-12-27T16:08:17.141Z,10.35
2023-12-27T16:10:46.385Z,10.30
2023-12-27T16:13:15.929Z,5.65
2023-12-27T16:15:45.196Z,4.70
2023-12-27T16:18:15.838Z,5.32
2023-12-27T16:20:45.271Z,5.00
2023-12-27T16:23:14.863Z,5.35
2023-12-27T16:25:44.403Z,5.70
2023-12-27T16:28:13.804Z,6.05
2023-12-27T16:30:43.212Z,5.47
2023-12-27T16:33:12.668Z,5.90
2023-12-27T16:35:43.555Z,6.80
2023-12-27T16:38:15.145Z,9.02
2023-12-27T16:40:44.711Z,12.25
2023-12-27T16:43:19.356Z,10.18
2023-12-27T16:45:49.205Z,13.48
2023-12-27T16:48:20.257Z,8.88
2023-12-27T16:50:52.019Z,9.18
2023-12-27T16:53:21.353Z,8.52
2023-12-27T16:55:51.490Z,8.63
2023-12-27T16:58:21.392Z,9.07
2023-12-27T17:00:50.628Z,9.20
2023-12-27T17:03:19.898Z,7.72
2023-12-27T17:05:51.317Z,9.85
2023-12-27T17:08:21.725Z,9.27
2023-12-27T17:10:51.022Z,8.00
2023-12-27T17:13:20.370Z,8.60
2023-12-27T17:15:49.600Z,8.43
2023-12-27T17:18:19.519Z,8.07
2023-12-27T17:20:50.559Z,9.55
2023-12-27T17:23:19.908Z,8.13
2023-12-27T17:25:49.180Z,7.32
2023-12-27T17:28:18.362Z,10.02
2023-12-27T17:30:47.554Z,8.48
2023-12-27T17:33:16.894Z,9.95
2023-12-27T17:35:49.210Z,10.02
2023-12-27T17:38:20.101Z,10.25
2023-12-27T17:40:49.904Z,9.13
2023-12-27T17:43:19.164Z,9.52
2023-12-27T17:45:48.505Z,9.93
2023-12-27T17:48:18.319Z,8.80
2023-12-27T17:50:47.791Z,9.98
2023-12-27T17:53:20.613Z,9.88
2023-12-27T17:55:54.346Z,9.18
2023-12-27T17:58:25.271Z,9.45
2023-12-27T18:00:55.579Z,9.88
2023-12-27T18:03:25.041Z,10.43
2023-12-27T18:05:55.881Z,9.93
2023-12-27T18:08:25.091Z,8.68
2023-12-27T18:10:55.576Z,9.98
2023-12-27T18:13:24.758Z,9.57
2023-12-27T18:15:54.049Z,9.60
2023-12-27T18:18:24.327Z,10.23
2023-12-27T18:20:53.687Z,10.48
2023-12-27T18:23:22.888Z,11.85
2023-12-27T18:25:52.173Z,11.40
2023-12-27T18:28:24.951Z,11.13
2023-12-27T18:30:54.161Z,11.27
2023-12-27T18:33:23.574Z,12.88
2023-12-27T18:35:58.475Z,12.02
2023-12-27T18:38:27.627Z,11.27
2023-12-27T18:40:56.719Z,11.23
2023-12-27T18:43:27.255Z,12.35
2023-12-27T18:45:56.437Z,11.98
2023-12-27T18:48:25.712Z,13.52
2023-12-27T18:50:54.915Z,12.85
2023-12-27T18:53:24.255Z,12.52
2023-12-27T18:55:53.367Z,11.15
2023-12-27T18:58:22.528Z,11.27
2023-12-27T19:00:53.184Z,10.55
2023-12-27T19:03:22.790Z,10.90
2023-12-27T19:05:52.553Z,11.93
2023-12-27T19:08:21.712Z,12.70
2023-12-27T19:10:50.876Z,13.45
2023-12-27T19:13:20.207Z,14.13
2023-12-27T19:15:49.569Z,13.43
2023-12-27T19:18:20.529Z,15.45
2023-12-27T19:20:52.991Z,15.38
2023-12-27T19:23:22.184Z,17.52
2023-12-27T19:25:52.698Z,16.15
2023-12-27T19:28:21.871Z,14.68
2023-12-27T19:30:51.764Z,15.23
2023-12-27T19:33:22.665Z,17.52
2023-12-27T19:35:51.994Z,16.80
2023-12-27T19:38:21.738Z,17.13
2023-12-27T19:40:53.698Z,17.35
2023-12-27T19:43:23.655Z,16.35
2023-12-27T19:45:56.071Z,14.88
2023-12-27T19:48:28.583Z,15.52
2023-12-27T19:50:58.567Z,14.73
2023-12-27T19:53:27.851Z,14.85
2023-12-27T19:55:57.107Z,14.95
2023-12-27T19:58:26.962Z,15.60
2023-12-27T20:00:56.400Z,16.40
2023-12-27T20:03:28.117Z,16.75
2023-12-27T20:05:57.654Z,16.98
2023-12-27T20:08:27.076Z,16.05
2023-12-27T20:10:56.280Z,15.82
2023-12-27T20:13:25.613Z,16.45
2023-12-27T20:15:54.900Z,16.73
2023-12-27T20:18:24.357Z,14.55
2023-12-27T20:20:55.258Z,16.10
2023-12-27T20:23:24.882Z,15.07
2023-12-27T20:25:54.078Z,15.27
2023-12-27T20:28:23.444Z,14.10
2023-12-27T20:30:52.863Z,14.48
2023-12-27T20:33:22.274Z,14.38
2023-12-27T20:35:52.570Z,14.07
2023-12-27T20:38:23.470Z,13.75
2023-12-27T20:40:52.730Z,13.98
2023-12-27T20:43:22.412Z,12.02
2023-12-27T20:45:51.629Z,14.65
2023-12-27T20:48:24.246Z,13.93
2023-12-27T20:50:54.292Z,13.63
2023-12-27T20:53:25.405Z,14.02
2023-12-27T20:55:55.387Z,14.38
2023-12-27T20:58:24.986Z,13.23
2023-12-27T21:00:54.330Z,13.88
2023-12-27T21:03:23.704Z,16.63
2023-12-27T21:05:54.652Z,14.77
2023-12-27T21:08:29.340Z,15.05
2023-12-27T21:10:58.794Z,14.45
2023-12-27T21:13:28.432Z,13.50
2023-12-27T21:15:57.780Z,14.32
2023-12-27T21:18:27.303Z,14.45
2023-12-27T21:20:56.608Z,14.85
2023-12-27T21:23:27.323Z,14.60
2023-12-27T21:25:57.816Z,14.45
2023-12-27T21:28:27.096Z,14.77
2023-12-27T21:30:59.740Z,14.57
2023-12-27T21:33:29.113Z,14.25
2023-12-27T21:35:58.328Z,14.18
2023-12-27T21:38:28.329Z,14.50
2023-12-27T21:40:59.902Z,14.30
2023-12-27T21:43:29.751Z,13.05
2023-12-27T21:45:59.765Z,13.88
2023-12-27T21:48:29.120Z,13.65
2023-12-27T21:50:58.614Z,14.70
2023-12-27T21:53:30.055Z,13.32
2023-12-27T21:56:02.089Z,14.98
2023-12-27T21:58:32.124Z,13.15
2023-12-27T22:01:01.528Z,13.57
2023-12-27T22:03:30.736Z,14.50
2023-12-27T22:05:59.912Z,12.90
2023-12-27T22:08:30.511Z,13.50
2023-12-27T22:10:58.752Z,13.60
2023-12-27T22:13:27.965Z,12.30
2023-12-27T22:16:01.136Z,13.20
2023-12-27T22:18:31.792Z,13.20
2023-12-27T22:21:01.206Z,13.00
2023-12-27T22:23:31.792Z,15.00
2023-12-27T22:26:02.735Z,13.82
2023-12-27T22:28:33.761Z,14.90
2023-12-27T22:31:02.930Z,13.88
2023-12-27T22:33:32.184Z,13.90
2023-12-27T22:36:01.337Z,13.32
2023-12-27T22:38:32.146Z,14.38
2023-12-27T22:41:01.487Z,14.82
2023-12-27T22:43:30.590Z,15.63
2023-12-27T22:45:59.806Z,14.80
2023-12-27T22:48:29.731Z,14.63
2023-12-27T22:50:58.986Z,15.32
2023-12-27T22:53:28.561Z,15.07
2023-12-27T22:55:59.055Z,14.68
2023-12-27T22:58:28.227Z,14.27
2023-12-27T23:00:57.623Z,14.15
2023-12-27T23:03:27.049Z,14.98
2023-12-27T23:05:56.193Z,13.65
2023-12-27T23:08:26.127Z,14.63
2023-12-27T23:10:55.218Z,15.75
2023-12-27T23:13:25.748Z,15.05
2023-12-27T23:15:54.929Z,14.55
2023-12-27T23:18:24.418Z,15.02
2023-12-27T23:20:53.682Z,14.18
2023-12-27T23:23:22.757Z,13.10
2023-12-27T23:25:51.937Z,14.60
2023-12-27T23:28:21.296Z,15.30
2023-12-27T23:30:51.982Z,15.18
2023-12-27T23:33:22.551Z,15.27
2023-12-27T23:35:52.105Z,15.88
2023-12-27T23:38:21.340Z,16.52
2023-12-27T23:40:50.535Z,16.02
2023-12-27T23:43:19.762Z,15.73
2023-12-27T23:45:49.059Z,15.77
2023-12-27T23:48:19.883Z,15.15
2023-12-27T23:50:48.164Z,15.30
2023-12-27T23:53:17.420Z,15.52
2023-12-27T23:55:46.894Z,15.35
2023-12-27T23:58:16.190Z,14.48
